Pagrindinis puslapis
METAR-TAF:

METAR-TAF

Oro uostai :

Nadžranas, Saudo Arabija

platuma: 17-37N, ilguma: 044-25E, Aukštis: 1212 m

Dabartinis oras

Ataskaita buvo paskelbta 1 valandą ir 18 minutes, ne 20:00 UTC
Ramus vėjas
Temperatūra 27°C
Drėgmė 18%
Slėgis 1016 hPa
Matomumas 10 km arba daugiau
Mažai debesys ne aukštis 3000 ft

METAR: OENG 122000Z 00000KT 9999 FEW030 27/01 Q1016 NOSIG

Laikas: 00:18 (21:18 UTC)

Prognozė

Ataskaita buvo paskelbta 10 valandos ir 18 minutes, ne 11:00 UTC
Prognozė galioja nuo 12 metu 12 UTC su 13 metu 18 UTC
Vėjas 10 kt iš Pietų
Matomumas: 7000 m
Mažai debesys ne aukštis 3000 ft
Laikinai
nuo 12 metu 12 UTC su 12 metu 18 UTC
Išsisklaidę debesys ne aukštis 3000 ft
Mažai debesys ne aukštis 2500 ft, Liūtiniai kamuoliniai debesys.
perkūnija
Tapsmas
nuo 12 metu 18 UTC su 12 metu 20 UTC
Vėjas 10 kt iš Vakarų
Tapsmas
nuo 13 metu 05 UTC su 13 metu 07 UTC
Vėjas 10 kt iš Rytų/Šiaurės Rytų

TAF: OENG 121100Z 1212/1318 17010KT 7000 FEW030 TEMPO 1212/1218 TS SCT030 FEW025CB BECMG 1218/1220 26010KT BECMG 1305/1307 06010KT

Orai ataskaitas ir orų prognozės (METAR, TAF).

turimą stotys yra geltonos ir raudonos taškus žemėlapyje.

Perkelti pele per norėdami pamatyti stoties vardą.

Tada spustelėkite, norėdami matyti oro stebėjimo ir prognozės.

Norėdami pakeisti žemėlapį: spustelėkite ant žalios mygtukų su juodo kryžiaus žemyn,; žalią mygtuką su brūkšneliu, jei norite nutolinti; arba žalių rodyklių gretimoms žemėlapius.


METAR-TAF: